sensor_id;sensor_type;location;lat;lon;timestamp;P1;durP1;ratioP1;P2;durP2;ratioP2
37781;SDS011;23621;50.878;4.584;2023-05-10T00:01:10;10.68;;;5.63;;
37781;SDS011;23621;50.878;4.584;2023-05-10T00:03:57;8.38;;;5.35;;
37781;SDS011;23621;50.878;4.584;2023-05-10T00:06:45;7.55;;;5.63;;
37781;SDS011;23621;50.878;4.584;2023-05-10T00:09:32;7.03;;;5.47;;
37781;SDS011;23621;50.878;4.584;2023-05-10T00:12:19;8.98;;;5.93;;
37781;SDS011;23621;50.878;4.584;2023-05-10T00:15:07;9.38;;;5.72;;
37781;SDS011;23621;50.878;4.584;2023-05-10T00:17:54;11.02;;;6.00;;
37781;SDS011;23621;50.878;4.584;2023-05-10T00:20:42;9.15;;;5.22;;
37781;SDS011;23621;50.878;4.584;2023-05-10T00:23:29;10.27;;;5.90;;
37781;SDS011;23621;50.878;4.584;2023-05-10T00:26:16;9.45;;;6.38;;
37781;SDS011;23621;50.878;4.584;2023-05-10T00:29:03;10.45;;;6.45;;
37781;SDS011;23621;50.878;4.584;2023-05-10T00:31:51;7.43;;;6.00;;
37781;SDS011;23621;50.878;4.584;2023-05-10T00:34:38;10.70;;;6.38;;
37781;SDS011;23621;50.878;4.584;2023-05-10T00:37:25;8.32;;;6.50;;
37781;SDS011;23621;50.878;4.584;2023-05-10T00:40:12;8.85;;;6.47;;
37781;SDS011;23621;50.878;4.584;2023-05-10T00:43:00;11.98;;;6.60;;
37781;SDS011;23621;50.878;4.584;2023-05-10T00:45:48;14.93;;;6.97;;
37781;SDS011;23621;50.878;4.584;2023-05-10T00:48:36;9.07;;;7.00;;
37781;SDS011;23621;50.878;4.584;2023-05-10T00:51:23;8.07;;;6.30;;
37781;SDS011;23621;50.878;4.584;2023-05-10T00:54:11;10.25;;;6.35;;
37781;SDS011;23621;50.878;4.584;2023-05-10T00:57:00;11.27;;;7.20;;
37781;SDS011;23621;50.878;4.584;2023-05-10T00:59:48;8.48;;;6.57;;
37781;SDS011;23621;50.878;4.584;2023-05-10T01:02:35;8.85;;;6.68;;
37781;SDS011;23621;50.878;4.584;2023-05-10T01:05:23;9.57;;;7.38;;
37781;SDS011;23621;50.878;4.584;2023-05-10T01:08:11;9.35;;;6.95;;
37781;SDS011;23621;50.878;4.584;2023-05-10T01:10:58;11.90;;;7.30;;
37781;SDS011;23621;50.878;4.584;2023-05-10T01:13:47;10.77;;;7.15;;
37781;SDS011;23621;50.878;4.584;2023-05-10T01:16:39;11.13;;;7.90;;
37781;SDS011;23621;50.878;4.584;2023-05-10T01:19:28;11.23;;;8.07;;
37781;SDS011;23621;50.878;4.584;2023-05-10T01:32:13;12.27;;;7.75;;
37781;SDS011;23621;50.878;4.584;2023-05-10T01:35:17;9.90;;;8.27;;
37781;SDS011;23621;50.878;4.584;2023-05-10T01:38:17;10.43;;;7.93;;
37781;SDS011;23621;50.878;4.584;2023-05-10T01:44:58;12.55;;;8.63;;
37781;SDS011;23621;50.878;4.584;2023-05-10T01:51:01;11.48;;;8.85;;
37781;SDS011;23621;50.878;4.584;2023-05-10T01:53:49;10.95;;;9.00;;
37781;SDS011;23621;50.878;4.584;2023-05-10T01:56:40;10.40;;;7.75;;
37781;SDS011;23621;50.878;4.584;2023-05-10T01:59:30;11.90;;;8.70;;
37781;SDS011;23621;50.878;4.584;2023-05-10T02:02:27;11.20;;;8.63;;
37781;SDS011;23621;50.878;4.584;2023-05-10T02:05:16;10.88;;;8.80;;
37781;SDS011;23621;50.878;4.584;2023-05-10T02:08:06;10.60;;;8.48;;
37781;SDS011;23621;50.878;4.584;2023-05-10T02:10:54;15.00;;;9.80;;
37781;SDS011;23621;50.878;4.584;2023-05-10T02:13:43;12.95;;;9.10;;
37781;SDS011;23621;50.878;4.584;2023-05-10T02:16:31;12.80;;;9.80;;
37781;SDS011;23621;50.878;4.584;2023-05-10T02:19:19;13.93;;;10.18;;
37781;SDS011;23621;50.878;4.584;2023-05-10T02:22:09;11.45;;;9.02;;
37781;SDS011;23621;50.878;4.584;2023-05-10T02:24:57;11.32;;;8.52;;
37781;SDS011;23621;50.878;4.584;2023-05-10T02:27:46;12.88;;;9.55;;
37781;SDS011;23621;50.878;4.584;2023-05-10T02:30:34;13.50;;;10.27;;
37781;SDS011;23621;50.878;4.584;2023-05-10T02:33:22;11.45;;;8.52;;
37781;SDS011;23621;50.878;4.584;2023-05-10T02:36:10;12.35;;;9.18;;
37781;SDS011;23621;50.878;4.584;2023-05-10T02:38:59;12.68;;;8.88;;
37781;SDS011;23621;50.878;4.584;2023-05-10T02:41:49;13.75;;;9.13;;
37781;SDS011;23621;50.878;4.584;2023-05-10T02:44:38;14.05;;;8.90;;
37781;SDS011;23621;50.878;4.584;2023-05-10T02:47:28;12.50;;;9.18;;
37781;SDS011;23621;50.878;4.584;2023-05-10T02:50:16;12.23;;;9.38;;
37781;SDS011;23621;50.878;4.584;2023-05-10T02:53:06;12.68;;;8.63;;
37781;SDS011;23621;50.878;4.584;2023-05-10T02:55:59;13.20;;;9.25;;
37781;SDS011;23621;50.878;4.584;2023-05-10T02:58:50;12.80;;;9.10;;
37781;SDS011;23621;50.878;4.584;2023-05-10T03:01:38;13.82;;;9.02;;
37781;SDS011;23621;50.878;4.584;2023-05-10T03:04:27;11.48;;;8.07;;
37781;SDS011;23621;50.878;4.584;2023-05-10T03:07:15;10.90;;;8.45;;
37781;SDS011;23621;50.878;4.584;2023-05-10T03:10:03;10.73;;;8.30;;
37781;SDS011;23621;50.878;4.584;2023-05-10T03:16:12;11.65;;;8.48;;
37781;SDS011;23621;50.878;4.584;2023-05-10T03:21:55;17.33;;;9.07;;
37781;SDS011;23621;50.878;4.584;2023-05-10T03:24:46;17.90;;;9.35;;
37781;SDS011;23621;50.878;4.584;2023-05-10T03:27:35;12.48;;;8.68;;
37781;SDS011;23621;50.878;4.584;2023-05-10T03:30:25;11.63;;;8.40;;
37781;SDS011;23621;50.878;4.584;2023-05-10T03:33:13;10.80;;;8.00;;
37781;SDS011;23621;50.878;4.584;2023-05-10T03:36:00;11.25;;;8.48;;
37781;SDS011;23621;50.878;4.584;2023-05-10T03:38:48;12.65;;;8.77;;
37781;SDS011;23621;50.878;4.584;2023-05-10T03:41:35;12.00;;;8.25;;
37781;SDS011;23621;50.878;4.584;2023-05-10T03:44:22;11.90;;;8.52;;
37781;SDS011;23621;50.878;4.584;2023-05-10T03:47:09;13.73;;;9.07;;
37781;SDS011;23621;50.878;4.584;2023-05-10T03:49:56;13.02;;;8.80;;
37781;SDS011;23621;50.878;4.584;2023-05-10T03:52:44;14.95;;;10.45;;
37781;SDS011;23621;50.878;4.584;2023-05-10T03:55:31;16.25;;;9.90;;
37781;SDS011;23621;50.878;4.584;2023-05-10T03:58:21;17.63;;;10.48;;
37781;SDS011;23621;50.878;4.584;2023-05-10T04:01:08;17.23;;;11.02;;
37781;SDS011;23621;50.878;4.584;2023-05-10T04:03:55;16.90;;;10.80;;
37781;SDS011;23621;50.878;4.584;2023-05-10T04:06:42;18.17;;;10.75;;
37781;SDS011;23621;50.878;4.584;2023-05-10T04:09:30;16.15;;;11.68;;
37781;SDS011;23621;50.878;4.584;2023-05-10T04:12:17;16.27;;;11.35;;
37781;SDS011;23621;50.878;4.584;2023-05-10T04:15:04;17.77;;;12.02;;
37781;SDS011;23621;50.878;4.584;2023-05-10T04:17:53;20.00;;;11.82;;
37781;SDS011;23621;50.878;4.584;2023-05-10T04:20:40;14.57;;;10.85;;
37781;SDS011;23621;50.878;4.584;2023-05-10T04:23:27;18.10;;;11.90;;
37781;SDS011;23621;50.878;4.584;2023-05-10T04:26:14;21.17;;;12.02;;
37781;SDS011;23621;50.878;4.584;2023-05-10T04:29:02;15.85;;;11.30;;
37781;SDS011;23621;50.878;4.584;2023-05-10T04:31:49;18.45;;;12.45;;
37781;SDS011;23621;50.878;4.584;2023-05-10T04:34:37;18.60;;;12.52;;
37781;SDS011;23621;50.878;4.584;2023-05-10T04:37:24;20.30;;;12.82;;
37781;SDS011;23621;50.878;4.584;2023-05-10T04:40:12;19.08;;;12.13;;
37781;SDS011;23621;50.878;4.584;2023-05-10T04:42:59;19.45;;;12.77;;
37781;SDS011;23621;50.878;4.584;2023-05-10T04:45:46;20.20;;;13.27;;
37781;SDS011;23621;50.878;4.584;2023-05-10T04:48:34;19.17;;;13.20;;
37781;SDS011;23621;50.878;4.584;2023-05-10T04:51:21;21.30;;;14.65;;
37781;SDS011;23621;50.878;4.584;2023-05-10T04:54:08;19.60;;;13.73;;
37781;SDS011;23621;50.878;4.584;2023-05-10T04:56:55;20.23;;;14.23;;
37781;SDS011;23621;50.878;4.584;2023-05-10T04:59:43;23.63;;;14.00;;
37781;SDS011;23621;50.878;4.584;2023-05-10T05:02:30;22.05;;;14.77;;
37781;SDS011;23621;50.878;4.584;2023-05-10T05:05:17;21.90;;;14.65;;
37781;SDS011;23621;50.878;4.584;2023-05-10T05:08:05;22.85;;;14.38;;
37781;SDS011;23621;50.878;4.584;2023-05-10T05:10:52;20.63;;;14.77;;
37781;SDS011;23621;50.878;4.584;2023-05-10T05:13:39;21.88;;;14.05;;
37781;SDS011;23621;50.878;4.584;2023-05-10T05:16:27;20.20;;;14.75;;
37781;SDS011;23621;50.878;4.584;2023-05-10T05:19:16;20.13;;;14.30;;
37781;SDS011;23621;50.878;4.584;2023-05-10T05:22:06;22.67;;;14.90;;
37781;SDS011;23621;50.878;4.584;2023-05-10T05:24:54;20.48;;;14.55;;
37781;SDS011;23621;50.878;4.584;2023-05-10T05:27:41;23.23;;;15.50;;
37781;SDS011;23621;50.878;4.584;2023-05-10T05:30:29;20.92;;;14.90;;
37781;SDS011;23621;50.878;4.584;2023-05-10T05:33:16;18.65;;;14.65;;
37781;SDS011;23621;50.878;4.584;2023-05-10T05:36:04;22.48;;;14.93;;
37781;SDS011;23621;50.878;4.584;2023-05-10T05:38:52;21.17;;;15.40;;
37781;SDS011;23621;50.878;4.584;2023-05-10T05:41:39;23.45;;;15.93;;
37781;SDS011;23621;50.878;4.584;2023-05-10T05:44:26;18.92;;;14.57;;
37781;SDS011;23621;50.878;4.584;2023-05-10T05:47:15;22.10;;;14.95;;
37781;SDS011;23621;50.878;4.584;2023-05-10T05:50:02;21.20;;;14.23;;
37781;SDS011;23621;50.878;4.584;2023-05-10T05:52:50;18.95;;;14.85;;
37781;SDS011;23621;50.878;4.584;2023-05-10T05:55:37;22.00;;;14.55;;
37781;SDS011;23621;50.878;4.584;2023-05-10T05:58:25;18.45;;;13.80;;
37781;SDS011;23621;50.878;4.584;2023-05-10T06:01:12;19.83;;;13.95;;
37781;SDS011;23621;50.878;4.584;2023-05-10T06:04:00;19.98;;;14.25;;
37781;SDS011;23621;50.878;4.584;2023-05-10T06:06:47;19.13;;;14.10;;
37781;SDS011;23621;50.878;4.584;2023-05-10T06:09:34;18.60;;;13.82;;
37781;SDS011;23621;50.878;4.584;2023-05-10T06:12:21;19.42;;;14.43;;
37781;SDS011;23621;50.878;4.584;2023-05-10T06:15:09;17.20;;;13.45;;
37781;SDS011;23621;50.878;4.584;2023-05-10T06:17:56;19.58;;;13.95;;
37781;SDS011;23621;50.878;4.584;2023-05-10T06:20:44;19.58;;;13.60;;
37781;SDS011;23621;50.878;4.584;2023-05-10T06:23:31;21.73;;;14.85;;
37781;SDS011;23621;50.878;4.584;2023-05-10T06:26:18;20.98;;;14.45;;
37781;SDS011;23621;50.878;4.584;2023-05-10T06:29:07;20.10;;;14.25;;
37781;SDS011;23621;50.878;4.584;2023-05-10T06:31:54;21.02;;;14.13;;
37781;SDS011;23621;50.878;4.584;2023-05-10T06:34:42;21.98;;;14.77;;
37781;SDS011;23621;50.878;4.584;2023-05-10T06:37:30;18.35;;;12.00;;
37781;SDS011;23621;50.878;4.584;2023-05-10T06:40:17;16.88;;;11.82;;
37781;SDS011;23621;50.878;4.584;2023-05-10T06:43:05;15.70;;;11.20;;
37781;SDS011;23621;50.878;4.584;2023-05-10T06:45:52;12.75;;;10.05;;
37781;SDS011;23621;50.878;4.584;2023-05-10T06:48:40;12.55;;;9.30;;
37781;SDS011;23621;50.878;4.584;2023-05-10T06:51:27;11.65;;;10.05;;
37781;SDS011;23621;50.878;4.584;2023-05-10T06:54:15;14.60;;;9.68;;
37781;SDS011;23621;50.878;4.584;2023-05-10T06:57:02;12.30;;;8.70;;
37781;SDS011;23621;50.878;4.584;2023-05-10T06:59:56;9.48;;;6.90;;
37781;SDS011;23621;50.878;4.584;2023-05-10T07:02:44;7.78;;;5.90;;
37781;SDS011;23621;50.878;4.584;2023-05-10T07:05:31;9.75;;;5.65;;
37781;SDS011;23621;50.878;4.584;2023-05-10T07:08:19;6.78;;;5.38;;
37781;SDS011;23621;50.878;4.584;2023-05-10T07:11:06;8.43;;;5.88;;
37781;SDS011;23621;50.878;4.584;2023-05-10T07:13:53;5.28;;;4.78;;
37781;SDS011;23621;50.878;4.584;2023-05-10T07:16:41;7.60;;;5.63;;
37781;SDS011;23621;50.878;4.584;2023-05-10T07:19:28;6.75;;;5.10;;
37781;SDS011;23621;50.878;4.584;2023-05-10T07:22:16;6.07;;;4.68;;
37781;SDS011;23621;50.878;4.584;2023-05-10T07:25:03;5.32;;;4.05;;
37781;SDS011;23621;50.878;4.584;2023-05-10T07:27:51;5.90;;;4.43;;
37781;SDS011;23621;50.878;4.584;2023-05-10T07:30:39;4.55;;;4.03;;
37781;SDS011;23621;50.878;4.584;2023-05-10T07:33:26;6.45;;;4.80;;
37781;SDS011;23621;50.878;4.584;2023-05-10T07:36:13;5.90;;;4.40;;
37781;SDS011;23621;50.878;4.584;2023-05-10T07:39:01;7.32;;;6.00;;
37781;SDS011;23621;50.878;4.584;2023-05-10T07:41:48;6.13;;;5.35;;
37781;SDS011;23621;50.878;4.584;2023-05-10T07:44:35;8.45;;;6.13;;
37781;SDS011;23621;50.878;4.584;2023-05-10T07:47:23;7.80;;;5.57;;
37781;SDS011;23621;50.878;4.584;2023-05-10T07:50:10;11.25;;;6.68;;
37781;SDS011;23621;50.878;4.584;2023-05-10T07:52:57;8.50;;;7.07;;
37781;SDS011;23621;50.878;4.584;2023-05-10T07:55:49;10.98;;;7.57;;
37781;SDS011;23621;50.878;4.584;2023-05-10T07:58:41;9.48;;;7.40;;
37781;SDS011;23621;50.878;4.584;2023-05-10T08:01:29;8.63;;;7.13;;
37781;SDS011;23621;50.878;4.584;2023-05-10T08:04:20;10.80;;;6.90;;
37781;SDS011;23621;50.878;4.584;2023-05-10T08:07:07;10.57;;;7.35;;
37781;SDS011;23621;50.878;4.584;2023-05-10T08:09:55;9.77;;;7.47;;
37781;SDS011;23621;50.878;4.584;2023-05-10T08:12:43;9.23;;;7.53;;
37781;SDS011;23621;50.878;4.584;2023-05-10T08:15:31;8.13;;;6.88;;
37781;SDS011;23621;50.878;4.584;2023-05-10T08:18:18;10.65;;;6.95;;
37781;SDS011;23621;50.878;4.584;2023-05-10T08:21:07;8.07;;;6.45;;
37781;SDS011;23621;50.878;4.584;2023-05-10T08:23:55;9.60;;;6.80;;
37781;SDS011;23621;50.878;4.584;2023-05-10T08:26:42;9.15;;;6.35;;
37781;SDS011;23621;50.878;4.584;2023-05-10T08:29:30;11.65;;;7.03;;
37781;SDS011;23621;50.878;4.584;2023-05-10T08:32:32;9.73;;;7.03;;
37781;SDS011;23621;50.878;4.584;2023-05-10T08:35:19;7.63;;;6.30;;
37781;SDS011;23621;50.878;4.584;2023-05-10T08:38:06;8.18;;;6.22;;
37781;SDS011;23621;50.878;4.584;2023-05-10T08:40:54;7.60;;;6.28;;
37781;SDS011;23621;50.878;4.584;2023-05-10T08:43:45;10.50;;;6.95;;
37781;SDS011;23621;50.878;4.584;2023-05-10T08:46:33;8.65;;;6.32;;
37781;SDS011;23621;50.878;4.584;2023-05-10T08:49:23;9.43;;;6.68;;
37781;SDS011;23621;50.878;4.584;2023-05-10T08:52:13;8.15;;;6.63;;
37781;SDS011;23621;50.878;4.584;2023-05-10T08:55:03;9.95;;;6.68;;
37781;SDS011;23621;50.878;4.584;2023-05-10T08:57:50;13.40;;;7.68;;
37781;SDS011;23621;50.878;4.584;2023-05-10T09:00:38;8.68;;;6.43;;
37781;SDS011;23621;50.878;4.584;2023-05-10T09:03:25;6.53;;;5.70;;
37781;SDS011;23621;50.878;4.584;2023-05-10T09:06:13;7.63;;;6.10;;
37781;SDS011;23621;50.878;4.584;2023-05-10T09:09:01;9.30;;;6.35;;
37781;SDS011;23621;50.878;4.584;2023-05-10T09:11:49;8.30;;;6.03;;
37781;SDS011;23621;50.878;4.584;2023-05-10T09:14:38;9.95;;;6.50;;
37781;SDS011;23621;50.878;4.584;2023-05-10T09:17:25;8.85;;;5.97;;
37781;SDS011;23621;50.878;4.584;2023-05-10T09:20:15;8.30;;;5.90;;
37781;SDS011;23621;50.878;4.584;2023-05-10T09:23:04;9.57;;;6.18;;
37781;SDS011;23621;50.878;4.584;2023-05-10T09:26:01;7.63;;;5.50;;
37781;SDS011;23621;50.878;4.584;2023-05-10T09:31:43;7.40;;;4.93;;
37781;SDS011;23621;50.878;4.584;2023-05-10T09:34:37;6.22;;;5.20;;
37781;SDS011;23621;50.878;4.584;2023-05-10T09:37:29;6.50;;;5.00;;
37781;SDS011;23621;50.878;4.584;2023-05-10T09:40:18;7.43;;;5.50;;
37781;SDS011;23621;50.878;4.584;2023-05-10T09:43:09;5.72;;;4.93;;
37781;SDS011;23621;50.878;4.584;2023-05-10T09:45:57;7.13;;;5.75;;
37781;SDS011;23621;50.878;4.584;2023-05-10T09:48:45;8.48;;;5.45;;
37781;SDS011;23621;50.878;4.584;2023-05-10T09:51:34;7.30;;;5.10;;
37781;SDS011;23621;50.878;4.584;2023-05-10T09:54:22;7.47;;;5.25;;
37781;SDS011;23621;50.878;4.584;2023-05-10T09:57:18;8.38;;;5.40;;
37781;SDS011;23621;50.878;4.584;2023-05-10T10:00:07;7.75;;;5.13;;
37781;SDS011;23621;50.878;4.584;2023-05-10T10:02:57;7.20;;;5.18;;
37781;SDS011;23621;50.878;4.584;2023-05-10T10:05:46;6.97;;;4.28;;
37781;SDS011;23621;50.878;4.584;2023-05-10T10:08:34;4.50;;;3.88;;
37781;SDS011;23621;50.878;4.584;2023-05-10T10:11:22;5.72;;;4.10;;
37781;SDS011;23621;50.878;4.584;2023-05-10T10:14:10;6.13;;;4.40;;
37781;SDS011;23621;50.878;4.584;2023-05-10T10:17:00;4.38;;;3.65;;
37781;SDS011;23621;50.878;4.584;2023-05-10T10:19:50;5.63;;;3.80;;
37781;SDS011;23621;50.878;4.584;2023-05-10T10:22:38;4.63;;;3.60;;
37781;SDS011;23621;50.878;4.584;2023-05-10T10:25:25;4.03;;;3.30;;
37781;SDS011;23621;50.878;4.584;2023-05-10T10:31:33;4.32;;;3.25;;
37781;SDS011;23621;50.878;4.584;2023-05-10T10:34:24;2.90;;;2.40;;
37781;SDS011;23621;50.878;4.584;2023-05-10T10:37:14;2.83;;;2.60;;
37781;SDS011;23621;50.878;4.584;2023-05-10T10:40:08;3.67;;;3.00;;
37781;SDS011;23621;50.878;4.584;2023-05-10T10:43:25;3.50;;;3.20;;
37781;SDS011;23621;50.878;4.584;2023-05-10T10:46:14;3.10;;;2.80;;
37781;SDS011;23621;50.878;4.584;2023-05-10T10:49:10;2.70;;;2.50;;
37781;SDS011;23621;50.878;4.584;2023-05-10T10:55:13;3.03;;;2.83;;
37781;SDS011;23621;50.878;4.584;2023-05-10T10:58:09;2.60;;;2.40;;
37781;SDS011;23621;50.878;4.584;2023-05-10T11:01:18;4.35;;;3.20;;
37781;SDS011;23621;50.878;4.584;2023-05-10T11:06:52;3.42;;;3.13;;
37781;SDS011;23621;50.878;4.584;2023-05-10T11:10:06;3.22;;;2.92;;
37781;SDS011;23621;50.878;4.584;2023-05-10T11:13:03;2.65;;;2.45;;
37781;SDS011;23621;50.878;4.584;2023-05-10T11:15:52;3.10;;;2.67;;
37781;SDS011;23621;50.878;4.584;2023-05-10T11:18:40;2.55;;;2.35;;
37781;SDS011;23621;50.878;4.584;2023-05-10T11:21:48;3.08;;;2.35;;
37781;SDS011;23621;50.878;4.584;2023-05-10T11:24:37;2.55;;;2.35;;
37781;SDS011;23621;50.878;4.584;2023-05-10T11:27:24;2.60;;;2.40;;
37781;SDS011;23621;50.878;4.584;2023-05-10T11:30:12;2.88;;;2.67;;
37781;SDS011;23621;50.878;4.584;2023-05-10T11:33:01;3.22;;;2.92;;
37781;SDS011;23621;50.878;4.584;2023-05-10T11:35:48;3.30;;;3.00;;
37781;SDS011;23621;50.878;4.584;2023-05-10T11:38:36;3.88;;;3.00;;
37781;SDS011;23621;50.878;4.584;2023-05-10T11:41:23;5.05;;;3.35;;
37781;SDS011;23621;50.878;4.584;2023-05-10T11:44:11;3.63;;;3.33;;
37781;SDS011;23621;50.878;4.584;2023-05-10T11:47:02;6.68;;;3.65;;
37781;SDS011;23621;50.878;4.584;2023-05-10T11:49:50;4.43;;;3.80;;
37781;SDS011;23621;50.878;4.584;2023-05-10T11:52:38;4.18;;;3.78;;
37781;SDS011;23621;50.878;4.584;2023-05-10T11:55:26;4.47;;;3.65;;
37781;SDS011;23621;50.878;4.584;2023-05-10T11:58:20;4.65;;;3.45;;
37781;SDS011;23621;50.878;4.584;2023-05-10T12:01:09;4.72;;;3.53;;
37781;SDS011;23621;50.878;4.584;2023-05-10T12:03:57;3.38;;;3.17;;
37781;SDS011;23621;50.878;4.584;2023-05-10T12:06:47;4.68;;;3.20;;
37781;SDS011;23621;50.878;4.584;2023-05-10T12:09:34;3.72;;;3.42;;
37781;SDS011;23621;50.878;4.584;2023-05-10T12:12:43;3.90;;;3.60;;
37781;SDS011;23621;50.878;4.584;2023-05-10T12:15:32;3.95;;;3.30;;
37781;SDS011;23621;50.878;4.584;2023-05-10T12:18:22;4.00;;;3.60;;
37781;SDS011;23621;50.878;4.584;2023-05-10T12:21:11;3.00;;;2.80;;
37781;SDS011;23621;50.878;4.584;2023-05-10T12:23:59;5.40;;;3.05;;
37781;SDS011;23621;50.878;4.584;2023-05-10T12:26:50;3.60;;;3.30;;
37781;SDS011;23621;50.878;4.584;2023-05-10T12:29:41;3.75;;;3.10;;
37781;SDS011;23621;50.878;4.584;2023-05-10T12:32:40;3.35;;;3.05;;
37781;SDS011;23621;50.878;4.584;2023-05-10T12:35:31;3.72;;;2.97;;
37781;SDS011;23621;50.878;4.584;2023-05-10T12:38:26;3.03;;;2.72;;
37781;SDS011;23621;50.878;4.584;2023-05-10T12:41:16;3.75;;;2.88;;
37781;SDS011;23621;50.878;4.584;2023-05-10T12:44:04;3.83;;;2.78;;
37781;SDS011;23621;50.878;4.584;2023-05-10T12:46:51;3.30;;;3.00;;
37781;SDS011;23621;50.878;4.584;2023-05-10T12:49:38;3.92;;;3.17;;
37781;SDS011;23621;50.878;4.584;2023-05-10T12:52:26;3.30;;;3.00;;
37781;SDS011;23621;50.878;4.584;2023-05-10T12:55:14;4.40;;;3.20;;
37781;SDS011;23621;50.878;4.584;2023-05-10T12:58:01;3.58;;;3.28;;
37781;SDS011;23621;50.878;4.584;2023-05-10T13:00:48;4.35;;;3.20;;
37781;SDS011;23621;50.878;4.584;2023-05-10T13:03:38;3.50;;;3.20;;
37781;SDS011;23621;50.878;4.584;2023-05-10T13:06:25;4.95;;;2.90;;
37781;SDS011;23621;50.878;4.584;2023-05-10T13:09:12;3.33;;;2.97;;
37781;SDS011;23621;50.878;4.584;2023-05-10T13:11:59;3.20;;;3.00;;
37781;SDS011;23621;50.878;4.584;2023-05-10T13:14:47;4.03;;;2.88;;
37781;SDS011;23621;50.878;4.584;2023-05-10T13:17:34;3.38;;;3.08;;
37781;SDS011;23621;50.878;4.584;2023-05-10T13:20:21;3.95;;;3.50;;
37781;SDS011;23621;50.878;4.584;2023-05-10T13:23:09;2.92;;;2.72;;
37781;SDS011;23621;50.878;4.584;2023-05-10T13:25:56;3.15;;;2.85;;
37781;SDS011;23621;50.878;4.584;2023-05-10T13:28:43;3.22;;;2.92;;
37781;SDS011;23621;50.878;4.584;2023-05-10T13:31:32;2.88;;;2.67;;
37781;SDS011;23621;50.878;4.584;2023-05-10T13:34:20;3.40;;;3.10;;
37781;SDS011;23621;50.878;4.584;2023-05-10T13:37:07;3.30;;;3.00;;
37781;SDS011;23621;50.878;4.584;2023-05-10T13:39:55;4.22;;;3.00;;
37781;SDS011;23621;50.878;4.584;2023-05-10T13:42:42;4.15;;;3.00;;
37781;SDS011;23621;50.878;4.584;2023-05-10T13:45:29;3.30;;;3.00;;
37781;SDS011;23621;50.878;4.584;2023-05-10T13:48:16;3.83;;;3.53;;
37781;SDS011;23621;50.878;4.584;2023-05-10T13:51:04;4.22;;;3.88;;
37781;SDS011;23621;50.878;4.584;2023-05-10T13:53:51;4.90;;;3.97;;
37781;SDS011;23621;50.878;4.584;2023-05-10T13:56:38;4.50;;;4.10;;
37781;SDS011;23621;50.878;4.584;2023-05-10T13:59:28;4.32;;;3.95;;
37781;SDS011;23621;50.878;4.584;2023-05-10T14:02:15;3.45;;;3.15;;
37781;SDS011;23621;50.878;4.584;2023-05-10T14:05:03;4.47;;;4.10;;
37781;SDS011;23621;50.878;4.584;2023-05-10T14:07:51;5.10;;;3.70;;
37781;SDS011;23621;50.878;4.584;2023-05-10T14:10:38;3.60;;;3.22;;
37781;SDS011;23621;50.878;4.584;2023-05-10T14:13:26;3.70;;;3.38;;
37781;SDS011;23621;50.878;4.584;2023-05-10T14:16:14;3.70;;;3.40;;
37781;SDS011;23621;50.878;4.584;2023-05-10T14:19:01;3.28;;;2.97;;
37781;SDS011;23621;50.878;4.584;2023-05-10T14:21:49;3.40;;;3.10;;
37781;SDS011;23621;50.878;4.584;2023-05-10T14:24:38;4.38;;;3.72;;
37781;SDS011;23621;50.878;4.584;2023-05-10T14:27:25;3.63;;;3.30;;
37781;SDS011;23621;50.878;4.584;2023-05-10T14:30:13;3.50;;;3.20;;
37781;SDS011;23621;50.878;4.584;2023-05-10T14:33:01;4.38;;;3.97;;
37781;SDS011;23621;50.878;4.584;2023-05-10T14:35:49;3.95;;;3.55;;
37781;SDS011;23621;50.878;4.584;2023-05-10T14:38:36;3.80;;;3.38;;
37781;SDS011;23621;50.878;4.584;2023-05-10T14:41:24;5.85;;;4.30;;
37781;SDS011;23621;50.878;4.584;2023-05-10T14:44:11;5.57;;;4.03;;
37781;SDS011;23621;50.878;4.584;2023-05-10T14:46:58;4.78;;;4.20;;
37781;SDS011;23621;50.878;4.584;2023-05-10T14:49:46;4.93;;;4.43;;
37781;SDS011;23621;50.878;4.584;2023-05-10T14:52:33;7.47;;;5.57;;
37781;SDS011;23621;50.878;4.584;2023-05-10T14:55:21;8.60;;;5.97;;
37781;SDS011;23621;50.878;4.584;2023-05-10T14:58:08;7.28;;;5.85;;
37781;SDS011;23621;50.878;4.584;2023-05-10T15:00:55;7.28;;;5.88;;
37781;SDS011;23621;50.878;4.584;2023-05-10T15:03:44;9.10;;;6.18;;
37781;SDS011;23621;50.878;4.584;2023-05-10T15:06:31;9.25;;;6.43;;
37781;SDS011;23621;50.878;4.584;2023-05-10T15:09:20;7.20;;;6.50;;
37781;SDS011;23621;50.878;4.584;2023-05-10T15:12:07;7.93;;;5.82;;
37781;SDS011;23621;50.878;4.584;2023-05-10T15:14:54;9.32;;;7.15;;
37781;SDS011;23621;50.878;4.584;2023-05-10T15:17:41;9.32;;;6.95;;
37781;SDS011;23621;50.878;4.584;2023-05-10T15:20:29;8.77;;;7.05;;
37781;SDS011;23621;50.878;4.584;2023-05-10T15:23:16;8.25;;;7.40;;
37781;SDS011;23621;50.878;4.584;2023-05-10T15:26:04;9.10;;;7.78;;
37781;SDS011;23621;50.878;4.584;2023-05-10T15:28:51;10.98;;;8.32;;
37781;SDS011;23621;50.878;4.584;2023-05-10T15:31:39;13.07;;;9.15;;
37781;SDS011;23621;50.878;4.584;2023-05-10T15:34:26;12.63;;;9.82;;
37781;SDS011;23621;50.878;4.584;2023-05-10T15:37:15;12.02;;;9.93;;
37781;SDS011;23621;50.878;4.584;2023-05-10T15:40:02;13.60;;;9.45;;
37781;SDS011;23621;50.878;4.584;2023-05-10T15:42:50;11.25;;;8.88;;
37781;SDS011;23621;50.878;4.584;2023-05-10T15:45:37;10.52;;;8.15;;
37781;SDS011;23621;50.878;4.584;2023-05-10T15:48:25;10.50;;;7.05;;
37781;SDS011;23621;50.878;4.584;2023-05-10T15:51:12;7.28;;;6.00;;
37781;SDS011;23621;50.878;4.584;2023-05-10T15:53:59;7.82;;;5.15;;
37781;SDS011;23621;50.878;4.584;2023-05-10T15:56:53;8.13;;;5.30;;
37781;SDS011;23621;50.878;4.584;2023-05-10T15:59:41;8.00;;;4.72;;
37781;SDS011;23621;50.878;4.584;2023-05-10T16:02:28;6.25;;;4.95;;
37781;SDS011;23621;50.878;4.584;2023-05-10T16:05:16;5.43;;;4.78;;
37781;SDS011;23621;50.878;4.584;2023-05-10T16:08:03;9.23;;;4.90;;
37781;SDS011;23621;50.878;4.584;2023-05-10T16:10:51;7.15;;;4.88;;
37781;SDS011;23621;50.878;4.584;2023-05-10T16:13:38;6.85;;;4.90;;
37781;SDS011;23621;50.878;4.584;2023-05-10T16:16:26;5.97;;;4.35;;
37781;SDS011;23621;50.878;4.584;2023-05-10T16:19:13;5.30;;;4.28;;
37781;SDS011;23621;50.878;4.584;2023-05-10T16:22:01;6.30;;;4.13;;
37781;SDS011;23621;50.878;4.584;2023-05-10T16:24:49;6.93;;;4.75;;
37781;SDS011;23621;50.878;4.584;2023-05-10T16:27:39;6.63;;;4.30;;
37781;SDS011;23621;50.878;4.584;2023-05-10T16:30:26;7.40;;;4.40;;
37781;SDS011;23621;50.878;4.584;2023-05-10T16:33:15;7.97;;;4.65;;
37781;SDS011;23621;50.878;4.584;2023-05-10T16:36:03;8.57;;;5.22;;
37781;SDS011;23621;50.878;4.584;2023-05-10T16:38:51;7.20;;;4.45;;
37781;SDS011;23621;50.878;4.584;2023-05-10T16:41:38;5.28;;;4.13;;
37781;SDS011;23621;50.878;4.584;2023-05-10T16:44:26;9.93;;;4.57;;
37781;SDS011;23621;50.878;4.584;2023-05-10T16:47:13;5.80;;;4.75;;
37781;SDS011;23621;50.878;4.584;2023-05-10T16:50:01;8.63;;;4.90;;
37781;SDS011;23621;50.878;4.584;2023-05-10T16:52:50;9.73;;;5.15;;
37781;SDS011;23621;50.878;4.584;2023-05-10T16:55:37;7.95;;;4.78;;
37781;SDS011;23621;50.878;4.584;2023-05-10T16:58:24;7.60;;;5.13;;
37781;SDS011;23621;50.878;4.584;2023-05-10T17:01:12;10.73;;;5.90;;
37781;SDS011;23621;50.878;4.584;2023-05-10T17:03:59;9.05;;;5.68;;
37781;SDS011;23621;50.878;4.584;2023-05-10T17:06:46;11.50;;;5.80;;
37781;SDS011;23621;50.878;4.584;2023-05-10T17:09:33;11.02;;;6.70;;
37781;SDS011;23621;50.878;4.584;2023-05-10T17:12:21;10.50;;;6.20;;
37781;SDS011;23621;50.878;4.584;2023-05-10T17:15:08;11.07;;;5.95;;
37781;SDS011;23621;50.878;4.584;2023-05-10T17:17:56;11.43;;;6.13;;
37781;SDS011;23621;50.878;4.584;2023-05-10T17:20:43;9.95;;;6.50;;
37781;SDS011;23621;50.878;4.584;2023-05-10T17:23:30;10.20;;;6.88;;